sensor_id;sensor_type;location;lat;lon;timestamp;P1;durP1;ratioP1;P2;durP2;ratioP2
70866;SDS011;58487;53.474;49.470;2024-03-02T00:00:51;13.27;;;4.18;;
70866;SDS011;58487;53.474;49.470;2024-03-02T00:03:18;10.30;;;4.25;;
70866;SDS011;58487;53.474;49.470;2024-03-02T00:05:49;11.48;;;4.10;;
70866;SDS011;58487;53.474;49.470;2024-03-02T00:08:26;14.60;;;4.63;;
70866;SDS011;58487;53.474;49.470;2024-03-02T00:10:57;13.48;;;4.20;;
70866;SDS011;58487;53.474;49.470;2024-03-02T00:13:24;13.15;;;4.40;;
70866;SDS011;58487;53.474;49.470;2024-03-02T00:15:54;17.65;;;4.70;;
70866;SDS011;58487;53.474;49.470;2024-03-02T00:18:25;12.57;;;4.30;;
70866;SDS011;58487;53.474;49.470;2024-03-02T00:20:56;14.65;;;5.10;;
70866;SDS011;58487;53.474;49.470;2024-03-02T00:23:23;14.98;;;5.00;;
70866;SDS011;58487;53.474;49.470;2024-03-02T00:25:56;15.55;;;4.75;;
70866;SDS011;58487;53.474;49.470;2024-03-02T00:28:30;16.27;;;4.68;;
70866;SDS011;58487;53.474;49.470;2024-03-02T00:33:35;14.18;;;5.03;;
70866;SDS011;58487;53.474;49.470;2024-03-02T00:36:03;16.00;;;4.97;;
70866;SDS011;58487;53.474;49.470;2024-03-02T00:38:30;17.20;;;6.10;;
70866;SDS011;58487;53.474;49.470;2024-03-02T00:41:04;14.27;;;4.47;;
70866;SDS011;58487;53.474;49.470;2024-03-02T00:46:13;13.53;;;4.37;;
70866;SDS011;58487;53.474;49.470;2024-03-02T00:48:46;11.93;;;4.47;;
70866;SDS011;58487;53.474;49.470;2024-03-02T00:51:16;12.60;;;4.35;;
70866;SDS011;58487;53.474;49.470;2024-03-02T00:53:42;12.73;;;4.63;;
70866;SDS011;58487;53.474;49.470;2024-03-02T00:56:09;15.32;;;5.20;;
70866;SDS011;58487;53.474;49.470;2024-03-02T00:58:38;13.60;;;4.93;;
70866;SDS011;58487;53.474;49.470;2024-03-02T01:01:04;11.93;;;4.15;;
70866;SDS011;58487;53.474;49.470;2024-03-02T01:03:33;15.43;;;5.57;;
70866;SDS011;58487;53.474;49.470;2024-03-02T01:06:00;13.45;;;4.78;;
70866;SDS011;58487;53.474;49.470;2024-03-02T01:08:26;13.25;;;4.88;;
70866;SDS011;58487;53.474;49.470;2024-03-02T01:10:52;12.60;;;5.00;;
70866;SDS011;58487;53.474;49.470;2024-03-02T01:13:18;12.68;;;4.95;;
70866;SDS011;58487;53.474;49.470;2024-03-02T01:15:45;13.57;;;4.50;;
70866;SDS011;58487;53.474;49.470;2024-03-02T01:18:11;14.60;;;4.50;;
70866;SDS011;58487;53.474;49.470;2024-03-02T01:20:37;12.95;;;4.70;;
70866;SDS011;58487;53.474;49.470;2024-03-02T01:23:04;14.77;;;4.73;;
70866;SDS011;58487;53.474;49.470;2024-03-02T01:25:30;12.15;;;4.65;;
70866;SDS011;58487;53.474;49.470;2024-03-02T01:27:56;17.60;;;5.10;;
70866;SDS011;58487;53.474;49.470;2024-03-02T01:30:22;14.35;;;5.28;;
70866;SDS011;58487;53.474;49.470;2024-03-02T01:32:49;12.82;;;5.03;;
70866;SDS011;58487;53.474;49.470;2024-03-02T01:35:15;14.38;;;5.18;;
70866;SDS011;58487;53.474;49.470;2024-03-02T01:37:44;14.07;;;5.10;;
70866;SDS011;58487;53.474;49.470;2024-03-02T01:40:10;16.23;;;5.40;;
70866;SDS011;58487;53.474;49.470;2024-03-02T01:42:37;13.15;;;4.65;;
70866;SDS011;58487;53.474;49.470;2024-03-02T01:45:05;14.18;;;5.20;;
70866;SDS011;58487;53.474;49.470;2024-03-02T01:47:31;14.27;;;5.10;;
70866;SDS011;58487;53.474;49.470;2024-03-02T01:49:58;13.23;;;4.65;;
70866;SDS011;58487;53.474;49.470;2024-03-02T01:52:25;12.10;;;5.13;;
70866;SDS011;58487;53.474;49.470;2024-03-02T01:54:52;15.80;;;4.97;;
70866;SDS011;58487;53.474;49.470;2024-03-02T01:57:18;12.45;;;4.43;;
70866;SDS011;58487;53.474;49.470;2024-03-02T01:59:45;13.30;;;4.23;;
70866;SDS011;58487;53.474;49.470;2024-03-02T02:02:14;16.52;;;4.38;;
70866;SDS011;58487;53.474;49.470;2024-03-02T02:04:40;12.40;;;4.10;;
70866;SDS011;58487;53.474;49.470;2024-03-02T02:07:06;10.65;;;3.58;;
70866;SDS011;58487;53.474;49.470;2024-03-02T02:09:33;13.57;;;5.10;;
70866;SDS011;58487;53.474;49.470;2024-03-02T02:11:59;10.85;;;3.80;;
70866;SDS011;58487;53.474;49.470;2024-03-02T02:14:26;15.02;;;4.57;;
70866;SDS011;58487;53.474;49.470;2024-03-02T02:16:52;10.65;;;4.07;;
70866;SDS011;58487;53.474;49.470;2024-03-02T02:19:18;14.63;;;4.68;;
70866;SDS011;58487;53.474;49.470;2024-03-02T02:21:44;13.55;;;4.80;;
70866;SDS011;58487;53.474;49.470;2024-03-02T02:24:10;11.85;;;4.88;;
70866;SDS011;58487;53.474;49.470;2024-03-02T02:26:38;13.75;;;4.80;;
70866;SDS011;58487;53.474;49.470;2024-03-02T02:29:05;13.40;;;5.13;;
70866;SDS011;58487;53.474;49.470;2024-03-02T02:31:37;13.88;;;5.22;;
70866;SDS011;58487;53.474;49.470;2024-03-02T02:34:05;13.35;;;4.60;;
70866;SDS011;58487;53.474;49.470;2024-03-02T02:36:31;14.52;;;5.22;;
70866;SDS011;58487;53.474;49.470;2024-03-02T02:39:00;17.25;;;5.38;;
70866;SDS011;58487;53.474;49.470;2024-03-02T02:41:29;18.70;;;5.53;;
70866;SDS011;58487;53.474;49.470;2024-03-02T02:43:56;16.20;;;5.78;;
70866;SDS011;58487;53.474;49.470;2024-03-02T02:46:22;14.93;;;4.82;;
70866;SDS011;58487;53.474;49.470;2024-03-02T02:48:48;18.73;;;7.57;;
70866;SDS011;58487;53.474;49.470;2024-03-02T02:51:16;17.25;;;5.95;;
70866;SDS011;58487;53.474;49.470;2024-03-02T02:53:43;17.85;;;5.00;;
70866;SDS011;58487;53.474;49.470;2024-03-02T02:56:13;18.85;;;5.75;;
70866;SDS011;58487;53.474;49.470;2024-03-02T02:58:40;12.82;;;5.47;;
70866;SDS011;58487;53.474;49.470;2024-03-02T03:01:07;14.10;;;4.97;;
70866;SDS011;58487;53.474;49.470;2024-03-02T03:03:34;12.82;;;4.88;;
70866;SDS011;58487;53.474;49.470;2024-03-02T03:06:00;16.52;;;5.63;;
70866;SDS011;58487;53.474;49.470;2024-03-02T03:08:26;17.50;;;4.90;;
70866;SDS011;58487;53.474;49.470;2024-03-02T03:10:52;13.30;;;5.15;;
70866;SDS011;58487;53.474;49.470;2024-03-02T03:13:19;14.20;;;5.15;;
70866;SDS011;58487;53.474;49.470;2024-03-02T03:15:45;15.40;;;5.25;;
70866;SDS011;58487;53.474;49.470;2024-03-02T03:18:11;14.50;;;5.95;;
70866;SDS011;58487;53.474;49.470;2024-03-02T03:20:37;14.10;;;5.32;;
70866;SDS011;58487;53.474;49.470;2024-03-02T03:23:03;13.38;;;4.95;;
70866;SDS011;58487;53.474;49.470;2024-03-02T03:25:30;20.10;;;7.22;;
70866;SDS011;58487;53.474;49.470;2024-03-02T03:27:56;22.27;;;8.45;;
70866;SDS011;58487;53.474;49.470;2024-03-02T03:30:23;23.13;;;6.95;;
70866;SDS011;58487;53.474;49.470;2024-03-02T03:32:49;20.10;;;7.78;;
70866;SDS011;58487;53.474;49.470;2024-03-02T03:35:15;17.75;;;5.45;;
70866;SDS011;58487;53.474;49.470;2024-03-02T03:37:41;19.33;;;7.28;;
70866;SDS011;58487;53.474;49.470;2024-03-02T03:40:08;17.85;;;7.07;;
70866;SDS011;58487;53.474;49.470;2024-03-02T03:42:37;15.63;;;5.93;;
70866;SDS011;58487;53.474;49.470;2024-03-02T03:45:05;17.65;;;6.90;;
70866;SDS011;58487;53.474;49.470;2024-03-02T03:47:32;16.60;;;6.63;;
70866;SDS011;58487;53.474;49.470;2024-03-02T03:49:59;14.43;;;5.75;;
70866;SDS011;58487;53.474;49.470;2024-03-02T03:52:25;16.52;;;6.50;;
70866;SDS011;58487;53.474;49.470;2024-03-02T03:54:51;16.60;;;6.55;;
70866;SDS011;58487;53.474;49.470;2024-03-02T03:57:17;16.45;;;6.68;;
70866;SDS011;58487;53.474;49.470;2024-03-02T03:59:44;18.40;;;7.40;;
70866;SDS011;58487;53.474;49.470;2024-03-02T04:02:12;18.58;;;7.38;;
70866;SDS011;58487;53.474;49.470;2024-03-02T04:04:38;15.60;;;6.18;;
70866;SDS011;58487;53.474;49.470;2024-03-02T04:07:04;17.80;;;7.03;;
70866;SDS011;58487;53.474;49.470;2024-03-02T04:09:31;19.33;;;7.00;;
70866;SDS011;58487;53.474;49.470;2024-03-02T04:11:57;17.38;;;6.45;;
70866;SDS011;58487;53.474;49.470;2024-03-02T04:14:23;17.08;;;6.75;;
70866;SDS011;58487;53.474;49.470;2024-03-02T04:16:50;18.98;;;6.13;;
70866;SDS011;58487;53.474;49.470;2024-03-02T04:19:16;17.75;;;5.88;;
70866;SDS011;58487;53.474;49.470;2024-03-02T04:21:43;14.40;;;5.97;;
70866;SDS011;58487;53.474;49.470;2024-03-02T04:24:09;17.38;;;6.35;;
70866;SDS011;58487;53.474;49.470;2024-03-02T04:26:38;19.52;;;6.40;;
70866;SDS011;58487;53.474;49.470;2024-03-02T04:29:05;17.23;;;6.50;;
70866;SDS011;58487;53.474;49.470;2024-03-02T04:31:31;16.08;;;7.20;;
70866;SDS011;58487;53.474;49.470;2024-03-02T04:33:57;17.30;;;5.90;;
70866;SDS011;58487;53.474;49.470;2024-03-02T04:36:26;16.23;;;6.05;;
70866;SDS011;58487;53.474;49.470;2024-03-02T04:38:52;18.92;;;7.25;;
70866;SDS011;58487;53.474;49.470;2024-03-02T04:41:18;15.32;;;6.18;;
70866;SDS011;58487;53.474;49.470;2024-03-02T04:43:45;16.25;;;6.60;;
70866;SDS011;58487;53.474;49.470;2024-03-02T04:46:11;20.10;;;7.22;;
70866;SDS011;58487;53.474;49.470;2024-03-02T04:48:37;16.70;;;6.40;;
70866;SDS011;58487;53.474;49.470;2024-03-02T04:51:03;17.98;;;6.57;;
70866;SDS011;58487;53.474;49.470;2024-03-02T04:53:32;14.23;;;6.57;;
70866;SDS011;58487;53.474;49.470;2024-03-02T04:55:58;16.27;;;7.20;;
70866;SDS011;58487;53.474;49.470;2024-03-02T04:58:43;18.25;;;7.55;;
70866;SDS011;58487;53.474;49.470;2024-03-02T05:01:09;19.73;;;7.50;;
70866;SDS011;58487;53.474;49.470;2024-03-02T05:03:36;17.13;;;7.07;;
70866;SDS011;58487;53.474;49.470;2024-03-02T05:06:02;19.65;;;7.72;;
70866;SDS011;58487;53.474;49.470;2024-03-02T05:08:32;21.88;;;7.28;;
70866;SDS011;58487;53.474;49.470;2024-03-02T05:10:58;23.77;;;8.07;;
70866;SDS011;58487;53.474;49.470;2024-03-02T05:13:44;19.73;;;7.82;;
70866;SDS011;58487;53.474;49.470;2024-03-02T05:16:11;26.83;;;8.47;;
70866;SDS011;58487;53.474;49.470;2024-03-02T05:18:37;17.20;;;7.10;;
70866;SDS011;58487;53.474;49.470;2024-03-02T05:21:04;20.75;;;7.63;;
70866;SDS011;58487;53.474;49.470;2024-03-02T05:23:31;23.15;;;7.97;;
70866;SDS011;58487;53.474;49.470;2024-03-02T05:25:59;20.80;;;7.97;;
70866;SDS011;58487;53.474;49.470;2024-03-02T05:28:25;18.80;;;7.60;;
70866;SDS011;58487;53.474;49.470;2024-03-02T05:30:52;15.02;;;7.40;;
70866;SDS011;58487;53.474;49.470;2024-03-02T05:33:18;21.88;;;8.15;;
70866;SDS011;58487;53.474;49.470;2024-03-02T05:35:44;19.50;;;7.53;;
70866;SDS011;58487;53.474;49.470;2024-03-02T05:38:11;18.73;;;8.40;;
70866;SDS011;58487;53.474;49.470;2024-03-02T05:40:37;19.30;;;7.30;;
70866;SDS011;58487;53.474;49.470;2024-03-02T05:43:03;21.27;;;8.75;;
70866;SDS011;58487;53.474;49.470;2024-03-02T05:45:29;17.95;;;7.43;;
70866;SDS011;58487;53.474;49.470;2024-03-02T05:47:56;20.48;;;8.13;;
70866;SDS011;58487;53.474;49.470;2024-03-02T05:50:22;22.02;;;8.10;;
70866;SDS011;58487;53.474;49.470;2024-03-02T05:52:49;18.80;;;7.57;;
70866;SDS011;58487;53.474;49.470;2024-03-02T05:55:15;23.42;;;8.50;;
70866;SDS011;58487;53.474;49.470;2024-03-02T05:57:42;20.42;;;7.82;;
70866;SDS011;58487;53.474;49.470;2024-03-02T06:00:21;19.73;;;9.02;;
70866;SDS011;58487;53.474;49.470;2024-03-02T06:02:47;18.80;;;8.43;;
70866;SDS011;58487;53.474;49.470;2024-03-02T06:05:14;20.53;;;8.07;;
70866;SDS011;58487;53.474;49.470;2024-03-02T06:07:41;20.67;;;8.35;;
70866;SDS011;58487;53.474;49.470;2024-03-02T06:10:08;20.95;;;9.02;;
70866;SDS011;58487;53.474;49.470;2024-03-02T06:12:35;21.00;;;8.48;;
70866;SDS011;58487;53.474;49.470;2024-03-02T06:15:01;19.85;;;7.90;;
70866;SDS011;58487;53.474;49.470;2024-03-02T06:17:27;16.77;;;7.07;;
70866;SDS011;58487;53.474;49.470;2024-03-02T06:19:53;16.10;;;6.82;;
70866;SDS011;58487;53.474;49.470;2024-03-02T06:22:20;16.55;;;7.30;;
70866;SDS011;58487;53.474;49.470;2024-03-02T06:24:47;16.45;;;7.32;;
70866;SDS011;58487;53.474;49.470;2024-03-02T06:27:13;18.13;;;7.45;;
70866;SDS011;58487;53.474;49.470;2024-03-02T06:29:39;15.83;;;6.47;;
70866;SDS011;58487;53.474;49.470;2024-03-02T06:32:05;16.60;;;7.32;;
70866;SDS011;58487;53.474;49.470;2024-03-02T06:34:31;16.45;;;7.22;;
70866;SDS011;58487;53.474;49.470;2024-03-02T06:36:58;17.98;;;7.38;;
70866;SDS011;58487;53.474;49.470;2024-03-02T06:39:24;18.65;;;7.25;;
70866;SDS011;58487;53.474;49.470;2024-03-02T06:41:51;18.00;;;6.90;;
70866;SDS011;58487;53.474;49.470;2024-03-02T06:44:17;15.27;;;6.88;;
70866;SDS011;58487;53.474;49.470;2024-03-02T06:46:44;18.10;;;7.22;;
70866;SDS011;58487;53.474;49.470;2024-03-02T06:49:13;19.83;;;8.00;;
70866;SDS011;58487;53.474;49.470;2024-03-02T06:51:39;22.33;;;7.38;;
70866;SDS011;58487;53.474;49.470;2024-03-02T06:54:08;19.43;;;7.80;;
70866;SDS011;58487;53.474;49.470;2024-03-02T06:56:34;21.02;;;7.70;;
70866;SDS011;58487;53.474;49.470;2024-03-02T06:59:01;16.48;;;7.28;;
70866;SDS011;58487;53.474;49.470;2024-03-02T07:01:27;17.75;;;7.35;;
70866;SDS011;58487;53.474;49.470;2024-03-02T07:03:53;16.38;;;7.57;;
70866;SDS011;58487;53.474;49.470;2024-03-02T07:06:20;16.90;;;7.60;;
70866;SDS011;58487;53.474;49.470;2024-03-02T07:08:46;15.65;;;7.47;;
70866;SDS011;58487;53.474;49.470;2024-03-02T07:11:12;15.18;;;6.70;;
70866;SDS011;58487;53.474;49.470;2024-03-02T07:13:39;17.75;;;7.57;;
70866;SDS011;58487;53.474;49.470;2024-03-02T07:16:05;20.58;;;7.57;;
70866;SDS011;58487;53.474;49.470;2024-03-02T07:18:51;17.90;;;7.67;;
70866;SDS011;58487;53.474;49.470;2024-03-02T07:21:18;18.50;;;7.72;;
70866;SDS011;58487;53.474;49.470;2024-03-02T07:23:44;17.70;;;7.78;;
70866;SDS011;58487;53.474;49.470;2024-03-02T07:26:10;18.42;;;7.47;;
70866;SDS011;58487;53.474;49.470;2024-03-02T07:28:36;17.55;;;7.50;;
70866;SDS011;58487;53.474;49.470;2024-03-02T07:31:03;16.00;;;6.90;;
70866;SDS011;58487;53.474;49.470;2024-03-02T07:33:30;17.23;;;7.97;;
70866;SDS011;58487;53.474;49.470;2024-03-02T07:35:59;16.70;;;7.15;;
70866;SDS011;58487;53.474;49.470;2024-03-02T07:38:27;18.85;;;7.28;;
70866;SDS011;58487;53.474;49.470;2024-03-02T07:40:54;17.08;;;6.97;;
70866;SDS011;58487;53.474;49.470;2024-03-02T07:43:21;16.13;;;6.70;;
70866;SDS011;58487;53.474;49.470;2024-03-02T07:45:48;19.67;;;7.93;;
70866;SDS011;58487;53.474;49.470;2024-03-02T07:48:14;17.60;;;6.57;;
70866;SDS011;58487;53.474;49.470;2024-03-02T07:50:41;17.73;;;6.80;;
70866;SDS011;58487;53.474;49.470;2024-03-02T07:53:08;17.48;;;7.32;;
70866;SDS011;58487;53.474;49.470;2024-03-02T07:55:35;17.13;;;6.60;;
70866;SDS011;58487;53.474;49.470;2024-03-02T07:58:01;17.65;;;6.70;;
70866;SDS011;58487;53.474;49.470;2024-03-02T08:00:28;18.30;;;6.68;;
70866;SDS011;58487;53.474;49.470;2024-03-02T08:02:54;15.43;;;7.55;;
70866;SDS011;58487;53.474;49.470;2024-03-02T08:05:21;17.73;;;7.85;;
70866;SDS011;58487;53.474;49.470;2024-03-02T08:07:48;20.97;;;7.83;;
70866;SDS011;58487;53.474;49.470;2024-03-02T08:10:18;17.40;;;7.07;;
70866;SDS011;58487;53.474;49.470;2024-03-02T08:12:45;16.05;;;6.53;;
70866;SDS011;58487;53.474;49.470;2024-03-02T08:15:11;17.38;;;7.20;;
70866;SDS011;58487;53.474;49.470;2024-03-02T08:17:40;16.85;;;6.95;;
70866;SDS011;58487;53.474;49.470;2024-03-02T08:20:14;21.20;;;6.80;;
70866;SDS011;58487;53.474;49.470;2024-03-02T08:22:40;19.13;;;7.57;;
70866;SDS011;58487;53.474;49.470;2024-03-02T08:25:07;18.77;;;7.55;;
70866;SDS011;58487;53.474;49.470;2024-03-02T08:27:34;16.27;;;6.40;;
70866;SDS011;58487;53.474;49.470;2024-03-02T08:30:01;15.60;;;6.68;;
70866;SDS011;58487;53.474;49.470;2024-03-02T08:32:29;15.83;;;6.90;;
70866;SDS011;58487;53.474;49.470;2024-03-02T08:34:55;17.60;;;6.18;;
70866;SDS011;58487;53.474;49.470;2024-03-02T08:37:21;14.15;;;6.75;;
70866;SDS011;58487;53.474;49.470;2024-03-02T08:39:48;16.75;;;6.65;;
70866;SDS011;58487;53.474;49.470;2024-03-02T08:42:14;15.93;;;6.47;;
70866;SDS011;58487;53.474;49.470;2024-03-02T08:44:40;18.33;;;5.83;;
70866;SDS011;58487;53.474;49.470;2024-03-02T08:47:06;18.00;;;6.43;;
70866;SDS011;58487;53.474;49.470;2024-03-02T08:49:33;15.38;;;6.05;;
70866;SDS011;58487;53.474;49.470;2024-03-02T08:51:59;16.35;;;6.10;;
70866;SDS011;58487;53.474;49.470;2024-03-02T08:54:25;16.02;;;6.80;;
70866;SDS011;58487;53.474;49.470;2024-03-02T08:56:52;14.30;;;5.63;;
70866;SDS011;58487;53.474;49.470;2024-03-02T08:59:18;17.27;;;6.57;;
70866;SDS011;58487;53.474;49.470;2024-03-02T09:01:45;16.85;;;6.25;;
70866;SDS011;58487;53.474;49.470;2024-03-02T09:04:11;12.18;;;5.60;;
70866;SDS011;58487;53.474;49.470;2024-03-02T09:06:37;17.17;;;7.05;;
70866;SDS011;58487;53.474;49.470;2024-03-02T09:09:04;15.97;;;5.83;;
70866;SDS011;58487;53.474;49.470;2024-03-02T09:11:30;14.07;;;5.95;;
70866;SDS011;58487;53.474;49.470;2024-03-02T09:13:58;12.98;;;6.10;;
70866;SDS011;58487;53.474;49.470;2024-03-02T09:16:24;16.40;;;6.28;;
70866;SDS011;58487;53.474;49.470;2024-03-02T09:18:56;15.27;;;6.55;;
70866;SDS011;58487;53.474;49.470;2024-03-02T09:21:23;14.43;;;5.80;;
70866;SDS011;58487;53.474;49.470;2024-03-02T09:23:51;18.30;;;6.82;;
70866;SDS011;58487;53.474;49.470;2024-03-02T09:26:17;16.60;;;5.88;;
70866;SDS011;58487;53.474;49.470;2024-03-02T09:28:45;14.40;;;6.10;;
70866;SDS011;58487;53.474;49.470;2024-03-02T09:31:11;17.73;;;6.38;;
70866;SDS011;58487;53.474;49.470;2024-03-02T09:33:38;15.17;;;5.77;;
70866;SDS011;58487;53.474;49.470;2024-03-02T09:36:05;15.38;;;6.50;;
70866;SDS011;58487;53.474;49.470;2024-03-02T09:38:32;12.10;;;5.25;;
70866;SDS011;58487;53.474;49.470;2024-03-02T09:41:00;9.90;;;4.50;;
70866;SDS011;58487;53.474;49.470;2024-03-02T09:43:26;14.73;;;4.70;;
70866;SDS011;58487;53.474;49.470;2024-03-02T09:45:53;10.37;;;5.13;;
70866;SDS011;58487;53.474;49.470;2024-03-02T09:48:21;14.05;;;5.75;;
70866;SDS011;58487;53.474;49.470;2024-03-02T09:50:48;13.68;;;5.80;;
70866;SDS011;58487;53.474;49.470;2024-03-02T09:53:15;12.32;;;5.57;;
70866;SDS011;58487;53.474;49.470;2024-03-02T09:55:45;13.63;;;6.22;;
70866;SDS011;58487;53.474;49.470;2024-03-02T09:58:12;13.20;;;5.73;;
70866;SDS011;58487;53.474;49.470;2024-03-02T10:00:40;15.68;;;6.03;;
70866;SDS011;58487;53.474;49.470;2024-03-02T10:03:12;11.85;;;5.53;;
70866;SDS011;58487;53.474;49.470;2024-03-02T10:05:39;12.90;;;5.80;;
70866;SDS011;58487;53.474;49.470;2024-03-02T10:08:05;13.88;;;6.15;;
70866;SDS011;58487;53.474;49.470;2024-03-02T10:13:14;12.35;;;5.70;;
70866;SDS011;58487;53.474;49.470;2024-03-02T10:15:42;11.40;;;6.05;;
70866;SDS011;58487;53.474;49.470;2024-03-02T10:18:09;10.80;;;5.57;;
70866;SDS011;58487;53.474;49.470;2024-03-02T10:20:41;11.88;;;5.88;;
70866;SDS011;58487;53.474;49.470;2024-03-02T10:25:43;10.82;;;5.63;;
70866;SDS011;58487;53.474;49.470;2024-03-02T10:28:10;11.82;;;5.90;;
70866;SDS011;58487;53.474;49.470;2024-03-02T10:30:37;13.18;;;6.00;;
70866;SDS011;58487;53.474;49.470;2024-03-02T10:33:03;12.50;;;6.30;;
70866;SDS011;58487;53.474;49.470;2024-03-02T10:35:31;13.30;;;6.10;;
70866;SDS011;58487;53.474;49.470;2024-03-02T10:37:58;13.57;;;6.65;;
70866;SDS011;58487;53.474;49.470;2024-03-02T10:40:26;12.05;;;5.72;;
70866;SDS011;58487;53.474;49.470;2024-03-02T10:42:53;13.43;;;6.25;;
70866;SDS011;58487;53.474;49.470;2024-03-02T10:45:20;12.38;;;6.40;;
70866;SDS011;58487;53.474;49.470;2024-03-02T10:47:49;13.37;;;6.03;;
70866;SDS011;58487;53.474;49.470;2024-03-02T10:50:16;11.60;;;6.10;;
70866;SDS011;58487;53.474;49.470;2024-03-02T10:52:42;11.55;;;5.80;;
70866;SDS011;58487;53.474;49.470;2024-03-02T10:55:09;10.80;;;5.55;;
70866;SDS011;58487;53.474;49.470;2024-03-02T10:57:40;10.15;;;5.47;;
70866;SDS011;58487;53.474;49.470;2024-03-02T11:00:13;13.83;;;5.40;;
70866;SDS011;58487;53.474;49.470;2024-03-02T11:03:06;11.88;;;5.78;;
70866;SDS011;58487;53.474;49.470;2024-03-02T11:05:33;12.57;;;5.95;;
70866;SDS011;58487;53.474;49.470;2024-03-02T11:08:02;12.45;;;6.30;;
70866;SDS011;58487;53.474;49.470;2024-03-02T11:10:37;13.52;;;6.72;;
70866;SDS011;58487;53.474;49.470;2024-03-02T11:13:11;13.80;;;6.63;;
70866;SDS011;58487;53.474;49.470;2024-03-02T11:15:40;12.68;;;6.90;;
70866;SDS011;58487;53.474;49.470;2024-03-02T11:18:08;14.88;;;6.97;;
70866;SDS011;58487;53.474;49.470;2024-03-02T11:20:43;15.15;;;6.93;;
70866;SDS011;58487;53.474;49.470;2024-03-02T11:23:10;12.73;;;6.70;;
70866;SDS011;58487;53.474;49.470;2024-03-02T11:25:36;14.37;;;6.73;;
70866;SDS011;58487;53.474;49.470;2024-03-02T11:28:05;13.07;;;6.60;;
70866;SDS011;58487;53.474;49.470;2024-03-02T11:35:31;13.52;;;6.38;;
70866;SDS011;58487;53.474;49.470;2024-03-02T11:38:01;11.93;;;6.20;;
70866;SDS011;58487;53.474;49.470;2024-03-02T11:40:29;15.07;;;6.75;;
70866;SDS011;58487;53.474;49.470;2024-03-02T11:43:01;11.43;;;6.72;;
70866;SDS011;58487;53.474;49.470;2024-03-02T11:45:28;12.27;;;6.20;;
70866;SDS011;58487;53.474;49.470;2024-03-02T11:47:55;12.65;;;6.25;;
70866;SDS011;58487;53.474;49.470;2024-03-02T11:50:35;13.57;;;4.30;;
70866;SDS011;58487;53.474;49.470;2024-03-02T11:53:06;7.82;;;4.40;;
70866;SDS011;58487;53.474;49.470;2024-03-02T11:55:38;7.65;;;4.35;;
70866;SDS011;58487;53.474;49.470;2024-03-02T11:58:15;9.20;;;4.22;;
70866;SDS011;58487;53.474;49.470;2024-03-02T12:00:53;8.93;;;4.13;;
70866;SDS011;58487;53.474;49.470;2024-03-02T12:03:21;11.07;;;4.60;;
70866;SDS011;58487;53.474;49.470;2024-03-02T12:05:49;8.98;;;4.88;;
70866;SDS011;58487;53.474;49.470;2024-03-02T12:08:16;9.45;;;5.40;;
70866;SDS011;58487;53.474;49.470;2024-03-02T12:10:43;10.07;;;5.05;;
70866;SDS011;58487;53.474;49.470;2024-03-02T12:13:21;10.27;;;4.70;;
70866;SDS011;58487;53.474;49.470;2024-03-02T12:15:47;16.40;;;4.57;;
70866;SDS011;58487;53.474;49.470;2024-03-02T12:18:13;10.15;;;5.40;;
70866;SDS011;58487;53.474;49.470;2024-03-02T12:20:39;10.68;;;5.03;;
70866;SDS011;58487;53.474;49.470;2024-03-02T12:23:06;8.77;;;4.43;;
70866;SDS011;58487;53.474;49.470;2024-03-02T12:25:33;11.18;;;5.03;;
70866;SDS011;58487;53.474;49.470;2024-03-02T12:28:00;8.37;;;4.10;;
70866;SDS011;58487;53.474;49.470;2024-03-02T12:30:30;10.55;;;4.88;;
70866;SDS011;58487;53.474;49.470;2024-03-02T12:32:58;11.10;;;4.43;;
70866;SDS011;58487;53.474;49.470;2024-03-02T12:35:25;9.88;;;4.53;;
70866;SDS011;58487;53.474;49.470;2024-03-02T12:37:54;12.00;;;4.25;;
70866;SDS011;58487;53.474;49.470;2024-03-02T12:40:21;9.63;;;4.50;;
70866;SDS011;58487;53.474;49.470;2024-03-02T12:42:48;7.05;;;3.75;;
70866;SDS011;58487;53.474;49.470;2024-03-02T12:45:15;7.85;;;3.90;;
70866;SDS011;58487;53.474;49.470;2024-03-02T12:47:42;9.43;;;4.53;;
70866;SDS011;58487;53.474;49.470;2024-03-02T12:50:09;9.70;;;4.45;;
70866;SDS011;58487;53.474;49.470;2024-03-02T12:52:36;8.50;;;4.07;;
70866;SDS011;58487;53.474;49.470;2024-03-02T12:55:03;12.05;;;4.05;;
70866;SDS011;58487;53.474;49.470;2024-03-02T12:57:31;9.45;;;4.60;;
70866;SDS011;58487;53.474;49.470;2024-03-02T13:02:35;15.30;;;7.30;;
70866;SDS011;58487;53.474;49.470;2024-03-02T13:05:02;20.87;;;11.10;;
70866;SDS011;58487;53.474;49.470;2024-03-02T13:07:29;15.75;;;7.45;;
70866;SDS011;58487;53.474;49.470;2024-03-02T13:09:56;10.40;;;5.00;;
70866;SDS011;58487;53.474;49.470;2024-03-02T13:12:23;8.82;;;4.55;;
70866;SDS011;58487;53.474;49.470;2024-03-02T13:14:53;9.75;;;4.55;;
70866;SDS011;58487;53.474;49.470;2024-03-02T13:17:20;11.03;;;5.73;;
70866;SDS011;58487;53.474;49.470;2024-03-02T13:19:57;14.40;;;7.20;;
70866;SDS011;58487;53.474;49.470;2024-03-02T13:22:24;17.98;;;8.38;;
70866;SDS011;58487;53.474;49.470;2024-03-02T13:24:51;20.45;;;9.70;;
70866;SDS011;58487;53.474;49.470;2024-03-02T13:27:20;24.27;;;12.10;;
70866;SDS011;58487;53.474;49.470;2024-03-02T13:29:47;25.93;;;12.10;;
70866;SDS011;58487;53.474;49.470;2024-03-02T13:32:14;24.98;;;12.10;;
70866;SDS011;58487;53.474;49.470;2024-03-02T13:34:46;24.65;;;11.98;;
70866;SDS011;58487;53.474;49.470;2024-03-02T13:37:12;21.80;;;11.05;;
70866;SDS011;58487;53.474;49.470;2024-03-02T13:39:39;20.27;;;10.77;;
70866;SDS011;58487;53.474;49.470;2024-03-02T13:42:11;24.57;;;12.60;;
70866;SDS011;58487;53.474;49.470;2024-03-02T13:44:43;24.88;;;13.30;;
70866;SDS011;58487;53.474;49.470;2024-03-02T13:47:15;26.30;;;13.38;;
70866;SDS011;58487;53.474;49.470;2024-03-02T13:49:41;29.60;;;14.70;;
70866;SDS011;58487;53.474;49.470;2024-03-02T13:52:12;28.23;;;14.45;;
70866;SDS011;58487;53.474;49.470;2024-03-02T13:54:44;39.80;;;17.70;;
70866;SDS011;58487;53.474;49.470;2024-03-02T13:57:12;41.40;;;18.17;;
70866;SDS011;58487;53.474;49.470;2024-03-02T13:59:40;39.15;;;19.40;;
70866;SDS011;58487;53.474;49.470;2024-03-02T14:02:08;45.53;;;19.50;;
70866;SDS011;58487;53.474;49.470;2024-03-02T14:04:34;33.22;;;15.70;;
70866;SDS011;58487;53.474;49.470;2024-03-02T14:07:01;28.70;;;14.50;;
70866;SDS011;58487;53.474;49.470;2024-03-02T14:09:28;30.15;;;12.90;;
70866;SDS011;58487;53.474;49.470;2024-03-02T14:11:56;24.90;;;11.25;;
70866;SDS011;58487;53.474;49.470;2024-03-02T14:14:22;26.92;;;12.75;;
70866;SDS011;58487;53.474;49.470;2024-03-02T14:16:49;25.02;;;13.05;;
70866;SDS011;58487;53.474;49.470;2024-03-02T14:19:16;25.27;;;11.80;;
70866;SDS011;58487;53.474;49.470;2024-03-02T14:21:42;23.75;;;11.18;;
70866;SDS011;58487;53.474;49.470;2024-03-02T14:24:09;23.92;;;11.70;;
70866;SDS011;58487;53.474;49.470;2024-03-02T14:26:36;22.45;;;10.45;;
70866;SDS011;58487;53.474;49.470;2024-03-02T14:29:05;20.58;;;9.63;;
70866;SDS011;58487;53.474;49.470;2024-03-02T14:31:31;19.20;;;9.10;;
70866;SDS011;58487;53.474;49.470;2024-03-02T14:33:58;20.63;;;8.85;;
70866;SDS011;58487;53.474;49.470;2024-03-02T14:36:25;22.45;;;9.25;;
70866;SDS011;58487;53.474;49.470;2024-03-02T14:38:55;19.45;;;9.20;;
70866;SDS011;58487;53.474;49.470;2024-03-02T14:41:22;22.55;;;8.85;;